Time;durP1;ratioP1;P1;durP2;ratioP2;P2;SDS_P1;SDS_P2;PMS_P1;PMS_P2;Temp;Humidity;BMP_temperature;BMP_pressure;BME280_temperature;BME280_humidity;BME280_pressure;Samples;Min_cycle;Max_cycle;Signal;HPM_P1;HPM_P2
2022/04/11 00:01:08;;;;;;;1.00;1.00;;;19.20;43.30;;;;;;5135036;27;43689;-61
2022/04/11 00:03:36;;;;;;;1.50;1.20;;;19.20;43.30;;;;;;5146225;27;43465;-60
2022/04/11 00:06:03;;;;;;;1.55;1.20;;;19.20;43.40;;;;;;5139889;27;43565;-62
2022/04/11 00:08:31;;;;;;;1.48;1.25;;;19.20;43.40;;;;;;5141871;27;45094;-61
2022/04/11 00:10:59;;;;;;;1.23;1.20;;;19.20;43.30;;;;;;5145177;27;43737;-61
2022/04/11 00:13:27;;;;;;;1.25;1.10;;;19.20;43.30;;;;;;5137879;27;43528;-61
2022/04/11 00:15:55;;;;;;;1.20;1.10;;;19.10;43.30;;;;;;5143208;27;43469;-61
2022/04/11 00:18:22;;;;;;;1.42;1.10;;;19.10;43.30;;;;;;5144213;27;44034;-61
2022/04/11 00:20:50;;;;;;;1.10;1.00;;;19.10;43.30;;;;;;5144929;27;43639;-61
2022/04/11 00:23:18;;;;;;;1.38;1.10;;;19.10;43.30;;;;;;5144167;27;43472;-61
2022/04/11 00:25:46;;;;;;;1.23;1.13;;;19.10;43.40;;;;;;5142327;27;43568;-61
2022/04/11 00:28:13;;;;;;;1.30;1.20;;;19.10;43.30;;;;;;5142660;27;43803;-61
2022/04/11 00:30:41;;;;;;;1.23;1.10;;;19.00;43.30;;;;;;5127076;27;43482;-61
2022/04/11 00:33:08;;;;;;;0.98;0.95;;;19.10;43.50;;;;;;5144310;27;43496;-61
2022/04/11 00:35:36;;;;;;;1.52;1.20;;;19.00;43.40;;;;;;5139561;27;43459;-62
2022/04/11 00:38:03;;;;;;;1.20;1.00;;;19.00;43.40;;;;;;5145486;27;45016;-61
2022/04/11 00:40:31;;;;;;;1.25;1.15;;;19.00;43.40;;;;;;5143875;27;43480;-61
2022/04/11 00:42:59;;;;;;;1.45;1.35;;;19.00;43.40;;;;;;5126189;27;43607;-61
2022/04/11 00:45:26;;;;;;;1.10;0.93;;;19.00;43.30;;;;;;5142090;27;43471;-61
2022/04/11 00:47:54;;;;;;;0.98;0.98;;;19.00;43.30;;;;;;5127232;27;44969;-62
2022/04/11 00:50:22;;;;;;;1.20;1.08;;;18.90;43.30;;;;;;5138661;27;43497;-61
2022/04/11 00:52:53;;;;;;;1.42;1.20;;;19.00;43.40;;;;;;5142212;27;43445;-61
2022/04/11 00:55:23;;;;;;;1.27;1.17;;;18.90;43.30;;;;;;5135973;27;43541;-61
2022/04/11 00:57:51;;;;;;;1.13;1.10;;;18.90;43.30;;;;;;5125125;27;44706;-61
2022/04/11 01:00:19;;;;;;;1.08;0.95;;;18.90;43.30;;;;;;5137813;27;43408;-61
2022/04/11 01:02:46;;;;;;;1.27;1.00;;;18.90;43.40;;;;;;5126248;27;44114;-61
2022/04/11 01:05:14;;;;;;;1.05;1.05;;;18.90;43.40;;;;;;5142732;27;43697;-61
2022/04/11 01:07:43;;;;;;;1.10;1.00;;;18.90;43.40;;;;;;5140191;27;43813;-61
2022/04/11 01:10:11;;;;;;;1.08;0.98;;;18.90;43.40;;;;;;5139849;27;43481;-61
2022/04/11 01:12:41;;;;;;;0.85;0.85;;;18.80;43.30;;;;;;5123501;27;43467;-62
2022/04/11 01:15:11;;;;;;;1.05;0.95;;;18.80;43.30;;;;;;5126444;27;43743;-62
2022/04/11 01:17:41;;;;;;;1.15;1.08;;;18.80;43.30;;;;;;5126059;27;44970;-61
2022/04/11 01:20:11;;;;;;;1.25;1.10;;;18.80;43.40;;;;;;5125251;27;43629;-61
2022/04/11 01:22:43;;;;;;;1.25;1.15;;;18.70;43.30;;;;;;5124930;27;43520;-61
2022/04/11 01:25:11;;;;;;;1.15;1.05;;;18.70;43.30;;;;;;5143234;27;43452;-61
2022/04/11 01:27:41;;;;;;;1.00;0.98;;;18.70;43.40;;;;;;5126426;27;43814;-61
2022/04/11 01:30:12;;;;;;;1.20;1.10;;;18.70;43.40;;;;;;5126047;27;43791;-61
2022/04/11 01:32:43;;;;;;;0.73;0.73;;;18.70;43.40;;;;;;5126662;27;43411;-61
2022/04/11 01:35:21;;;;;;;1.83;1.10;;;18.70;43.50;;;;;;5125350;27;43484;-61
2022/04/11 01:37:52;;;;;;;0.85;0.85;;;18.70;43.40;;;;;;5122695;27;43933;-61
2022/04/11 01:40:20;;;;;;;0.82;0.82;;;18.70;43.40;;;;;;5122149;27;43647;-61
2022/04/11 01:42:48;;;;;;;1.10;1.00;;;18.70;43.40;;;;;;5126288;27;43452;-61
2022/04/11 01:45:17;;;;;;;1.00;0.90;;;18.60;43.40;;;;;;5126214;27;43668;-61
2022/04/11 01:47:46;;;;;;;0.90;0.90;;;18.60;43.40;;;;;;5125745;27;43875;-61
2022/04/11 01:50:15;;;;;;;0.87;0.87;;;18.60;43.40;;;;;;5125698;27;43451;-61
2022/04/11 01:52:42;;;;;;;1.20;1.10;;;18.60;43.40;;;;;;5144654;27;44074;-61
2022/04/11 01:55:11;;;;;;;0.88;0.88;;;18.60;43.40;;;;;;5118756;27;43588;-61
2022/04/11 01:57:46;;;;;;;1.48;1.33;;;18.60;43.40;;;;;;5139047;27;44647;-61
2022/04/11 02:00:14;;;;;;;1.45;1.35;;;18.60;43.40;;;;;;5124957;27;43939;-61
2022/04/11 02:02:43;;;;;;;0.98;0.90;;;18.60;43.50;;;;;;5123957;27;43479;-61
2022/04/11 02:05:11;;;;;;;1.30;1.20;;;18.50;43.40;;;;;;5125285;27;43604;-61
2022/04/11 02:07:39;;;;;;;0.95;0.88;;;18.50;43.40;;;;;;5121360;27;44552;-61
2022/04/11 02:10:08;;;;;;;1.23;1.13;;;18.50;43.40;;;;;;5124555;27;43974;-61
2022/04/11 02:12:35;;;;;;;1.63;1.15;;;18.50;43.40;;;;;;5139217;27;43466;-61
2022/04/11 02:15:03;;;;;;;1.02;1.02;;;18.50;43.40;;;;;;5125549;27;43532;-61
2022/04/11 02:17:31;;;;;;;0.80;0.80;;;18.50;43.40;;;;;;5122974;27;44074;-61
2022/04/11 02:19:58;;;;;;;0.98;0.98;;;18.40;43.40;;;;;;5120342;27;43921;-61
2022/04/11 02:22:26;;;;;;;1.13;1.02;;;18.50;43.40;;;;;;5119242;27;43506;-61
2022/04/11 02:24:53;;;;;;;0.88;0.88;;;18.40;43.40;;;;;;5140618;27;43492;-61
2022/04/11 02:27:21;;;;;;;1.08;0.90;;;18.40;43.30;;;;;;5123842;27;44086;-61
2022/04/11 02:29:49;;;;;;;0.98;0.98;;;18.40;43.40;;;;;;5141230;27;43514;-61
2022/04/11 02:32:16;;;;;;;0.93;0.93;;;18.40;43.50;;;;;;5124704;27;43484;-61
2022/04/11 02:34:44;;;;;;;1.20;1.02;;;18.40;43.40;;;;;;5138425;27;43577;-61
2022/04/11 02:37:11;;;;;;;1.00;1.00;;;18.40;43.40;;;;;;5120273;27;43829;-62
2022/04/11 02:39:38;;;;;;;0.90;0.90;;;18.40;43.50;;;;;;5106974;27;43529;-61
2022/04/11 02:42:07;;;;;;;1.20;1.10;;;18.30;43.40;;;;;;5108007;27;43461;-61
2022/04/11 02:44:35;;;;;;;1.00;1.00;;;18.30;43.40;;;;;;5105706;27;43657;-61
2022/04/11 02:47:04;;;;;;;1.20;1.10;;;18.30;43.40;;;;;;5122631;27;44928;-61
2022/04/11 02:49:32;;;;;;;1.17;1.10;;;18.30;43.40;;;;;;5122014;27;44072;-61
2022/04/11 02:52:18;;;;;;;0.70;0.70;;;18.30;43.40;;;;;;5124514;27;43483;-61
2022/04/11 02:54:46;;;;;;;1.20;1.10;;;18.30;43.40;;;;;;5124880;27;43566;-60
2022/04/11 02:57:14;;;;;;;1.00;1.00;;;18.30;43.50;;;;;;5111225;27;43801;-61
2022/04/11 02:59:42;;;;;;;1.25;0.90;;;18.20;43.40;;;;;;5142718;27;43730;-61
2022/04/11 03:02:09;;;;;;;0.80;0.75;;;18.20;43.40;;;;;;5127601;27;43473;-61
2022/04/11 03:04:38;;;;;;;1.50;1.05;;;18.20;43.40;;;;;;5124583;27;44130;-61
2022/04/11 03:07:14;;;;;;;1.63;1.20;;;18.20;43.40;;;;;;5120451;27;43878;-61
2022/04/11 03:09:42;;;;;;;0.90;0.90;;;18.20;43.50;;;;;;5124160;27;43522;-62
2022/04/11 03:12:10;;;;;;;1.00;1.00;;;18.20;43.40;;;;;;5124481;27;43477;-61
2022/04/11 03:14:38;;;;;;;1.85;1.08;;;18.20;43.50;;;;;;5123749;27;43482;-62
2022/04/11 03:17:07;;;;;;;1.00;1.00;;;18.20;43.40;;;;;;5122955;27;44683;-61
2022/04/11 03:19:36;;;;;;;1.10;0.85;;;18.20;43.40;;;;;;5124662;27;43842;-61
2022/04/11 03:22:04;;;;;;;0.80;0.80;;;18.10;43.40;;;;;;5123049;27;43516;-62
2022/04/11 03:24:32;;;;;;;1.08;1.00;;;18.10;43.40;;;;;;5125844;27;43594;-61
2022/04/11 03:26:59;;;;;;;0.93;0.93;;;18.10;43.40;;;;;;5128119;27;44742;-61
2022/04/11 03:29:31;;;;;;;1.42;0.93;;;18.10;43.50;;;;;;5128128;27;44082;-61
2022/04/11 03:31:59;;;;;;;1.00;1.00;;;18.10;43.40;;;;;;5126774;27;43549;-61
2022/04/11 03:34:30;;;;;;;1.08;0.90;;;18.10;43.50;;;;;;5121234;27;43512;-60
2022/04/11 03:36:57;;;;;;;1.17;1.08;;;18.10;43.50;;;;;;5125714;27;44012;-61
2022/04/11 03:39:28;;;;;;;1.25;1.15;;;18.10;43.40;;;;;;5124734;27;43687;-61
2022/04/11 03:41:56;;;;;;;0.80;0.80;;;18.10;43.50;;;;;;5140239;27;44063;-62
2022/04/11 03:44:28;;;;;;;1.15;1.08;;;18.00;43.40;;;;;;5127920;27;43532;-61
2022/04/11 03:47:02;;;;;;;1.00;1.00;;;18.00;43.40;;;;;;5123876;27;44157;-61
2022/04/11 03:49:32;;;;;;;1.05;1.05;;;18.00;43.40;;;;;;5126262;27;43462;-61
2022/04/11 03:52:09;;;;;;;0.70;0.70;;;18.00;43.40;;;;;;5126991;27;43461;-62
2022/04/11 03:54:37;;;;;;;0.88;0.88;;;18.00;43.40;;;;;;5124417;27;43552;-61
2022/04/11 03:57:05;;;;;;;0.85;0.85;;;18.00;43.50;;;;;;5125906;27;43797;-61
2022/04/11 03:59:32;;;;;;;1.20;1.10;;;18.00;43.50;;;;;;5118972;27;43522;-61
2022/04/11 04:02:00;;;;;;;1.02;1.02;;;18.00;43.50;;;;;;5126473;27;43567;-60
2022/04/11 04:04:28;;;;;;;0.93;0.93;;;18.00;43.50;;;;;;5110107;27;43517;-61
2022/04/11 04:06:56;;;;;;;1.10;1.10;;;18.00;43.40;;;;;;5127674;27;44019;-61
2022/04/11 04:09:24;;;;;;;0.90;0.90;;;18.00;43.50;;;;;;5124874;27;43960;-61
2022/04/11 04:11:52;;;;;;;0.93;0.93;;;17.90;43.40;;;;;;5126481;27;43459;-61
2022/04/11 04:14:30;;;;;;;4.97;1.13;;;17.90;43.50;;;;;;5143305;27;43632;-61
2022/04/11 04:16:58;;;;;;;1.15;1.02;;;17.90;43.50;;;;;;5126515;27;44052;-62
2022/04/11 04:19:38;;;;;;;1.15;1.02;;;17.90;43.50;;;;;;5124927;27;44003;-61
2022/04/11 04:22:12;;;;;;;1.30;1.20;;;17.90;43.50;;;;;;5125327;27;43466;-61
2022/04/11 04:24:40;;;;;;;1.20;1.10;;;17.90;43.60;;;;;;5139767;27;43469;-61
2022/04/11 04:27:08;;;;;;;0.90;0.90;;;17.90;43.50;;;;;;5123106;27;44035;-61
2022/04/11 04:29:38;;;;;;;1.17;1.08;;;17.90;43.50;;;;;;5126759;27;43984;-61
2022/04/11 04:32:05;;;;;;;1.20;1.10;;;17.90;43.50;;;;;;5122879;27;43428;-61
2022/04/11 04:34:36;;;;;;;0.82;0.82;;;17.90;43.50;;;;;;5126425;27;43616;-61
2022/04/11 04:37:05;;;;;;;1.10;1.10;;;17.80;43.50;;;;;;5126983;27;43795;-61
2022/04/11 04:39:33;;;;;;;1.00;1.00;;;17.80;43.40;;;;;;5125419;27;43447;-61
2022/04/11 04:42:01;;;;;;;1.42;1.33;;;17.80;43.40;;;;;;5119787;27;43654;-61
2022/04/11 04:44:29;;;;;;;1.38;1.30;;;17.80;43.50;;;;;;5098343;27;43575;-61
2022/04/11 04:47:00;;;;;;;1.05;1.00;;;17.80;43.50;;;;;;5097178;27;44858;-61
2022/04/11 04:49:34;;;;;;;1.00;1.00;;;17.80;43.50;;;;;;5093090;27;43629;-61
2022/04/11 04:52:04;;;;;;;1.20;1.10;;;17.80;43.50;;;;;;5095429;27;43374;-61
2022/04/11 04:54:34;;;;;;;0.90;0.90;;;17.80;43.50;;;;;;5095854;27;44200;-61
2022/04/11 04:57:02;;;;;;;1.73;1.00;;;17.80;43.60;;;;;;5101838;27;43987;-61
2022/04/11 04:59:30;;;;;;;1.02;1.02;;;17.80;43.50;;;;;;5077970;27;43626;-62
2022/04/11 05:02:04;;;;;;;1.15;1.08;;;17.70;43.50;;;;;;5100075;27;43537;-61
2022/04/11 05:04:33;;;;;;;1.15;1.10;;;17.70;43.50;;;;;;5095379;27;43644;-61
2022/04/11 05:07:00;;;;;;;0.80;0.80;;;17.70;43.50;;;;;;5074849;27;44526;-61
2022/04/11 05:09:29;;;;;;;1.17;1.08;;;17.70;43.50;;;;;;5094499;27;43492;-61
2022/04/11 05:11:58;;;;;;;1.40;1.30;;;17.70;43.50;;;;;;5094565;27;43466;-61
2022/04/11 05:14:25;;;;;;;1.00;1.00;;;17.70;43.60;;;;;;5094967;27;43456;-61
2022/04/11 05:17:00;;;;;;;0.93;0.93;;;17.70;43.50;;;;;;5076739;27;45047;-61
2022/04/11 05:19:28;;;;;;;1.30;1.20;;;17.70;43.60;;;;;;5082466;27;45108;-61
2022/04/11 05:21:56;;;;;;;1.25;1.15;;;17.70;43.60;;;;;;5081877;27;43491;-61
2022/04/11 05:24:24;;;;;;;1.33;1.23;;;17.70;43.60;;;;;;5093640;27;43583;-62
2022/04/11 05:26:52;;;;;;;1.50;1.40;;;17.60;43.50;;;;;;5089296;27;44023;-61
2022/04/11 05:29:20;;;;;;;1.30;1.20;;;17.60;43.60;;;;;;5092109;27;44088;-61
2022/04/11 05:31:47;;;;;;;1.20;1.00;;;17.60;43.60;;;;;;5097260;27;43480;-61
2022/04/11 05:34:16;;;;;;;1.15;1.05;;;17.60;43.60;;;;;;5095616;27;43647;-61
2022/04/11 05:36:44;;;;;;;1.23;1.20;;;17.60;43.60;;;;;;5034604;27;44657;-61
2022/04/11 05:39:13;;;;;;;1.17;1.17;;;17.60;43.60;;;;;;5099288;27;44467;-61
2022/04/11 05:41:40;;;;;;;1.10;1.02;;;17.60;43.60;;;;;;5104920;27;43469;-61
2022/04/11 05:44:08;;;;;;;1.08;1.08;;;17.60;43.60;;;;;;5108938;27;43632;-61
2022/04/11 05:46:41;;;;;;;1.10;1.08;;;17.60;43.60;;;;;;5090146;27;44953;-61
2022/04/11 05:49:21;;;;;;;1.15;1.15;;;17.60;43.70;;;;;;5092405;27;43692;-61
2022/04/11 05:51:48;;;;;;;1.20;1.10;;;17.60;43.70;;;;;;5098965;27;43470;-62
2022/04/11 05:54:16;;;;;;;1.00;1.00;;;17.60;43.70;;;;;;5048396;27;43612;-61
2022/04/11 05:56:43;;;;;;;1.30;1.20;;;17.60;43.70;;;;;;5098911;27;44059;-61
2022/04/11 05:59:14;;;;;;;1.20;1.10;;;17.60;43.70;;;;;;5071190;27;43939;-61
2022/04/11 06:01:42;;;;;;;1.23;1.15;;;17.50;43.60;;;;;;5090435;27;43589;-61
2022/04/11 06:04:10;;;;;;;1.10;1.10;;;17.50;43.70;;;;;;5095008;27;43632;-62
2022/04/11 06:06:37;;;;;;;1.17;1.08;;;17.50;43.70;;;;;;5101309;27;43777;-61
2022/04/11 06:09:05;;;;;;;1.02;0.98;;;17.50;43.70;;;;;;5090810;27;43914;-61
2022/04/11 06:11:34;;;;;;;1.20;1.20;;;17.50;43.70;;;;;;5091521;27;43454;-61
2022/04/11 06:14:02;;;;;;;1.38;1.27;;;17.50;43.70;;;;;;5089099;27;43574;-62
2022/04/11 06:16:30;;;;;;;1.55;1.45;;;17.50;43.80;;;;;;5024339;27;43809;-61
2022/04/11 06:18:57;;;;;;;1.33;1.23;;;17.50;43.70;;;;;;5097635;27;43970;-61
2022/04/11 06:21:25;;;;;;;1.00;1.00;;;17.50;43.70;;;;;;5099483;27;43440;-61
2022/04/11 06:23:53;;;;;;;1.40;1.30;;;17.50;43.80;;;;;;5092591;27;43488;-61
2022/04/11 06:26:24;;;;;;;1.50;1.40;;;17.50;43.80;;;;;;5091510;27;44253;-61
2022/04/11 06:28:51;;;;;;;1.38;1.27;;;17.40;43.80;;;;;;5094400;27;43493;-61
2022/04/11 06:31:19;;;;;;;1.10;1.00;;;17.40;43.80;;;;;;5093261;27;43556;-61
2022/04/11 06:33:51;;;;;;;1.10;1.10;;;17.40;43.80;;;;;;5097030;27;43474;-61
2022/04/11 06:36:21;;;;;;;1.00;1.00;;;17.40;43.80;;;;;;5099556;27;44923;-61
2022/04/11 06:38:48;;;;;;;1.73;1.17;;;17.40;43.80;;;;;;5086534;27;43679;-60
2022/04/11 06:41:17;;;;;;;1.00;1.00;;;17.40;43.90;;;;;;5092767;27;43484;-61
2022/04/11 06:43:44;;;;;;;1.23;1.20;;;17.40;43.90;;;;;;5068489;27;43503;-61
2022/04/11 06:46:26;;;;;;;1.15;1.10;;;17.40;43.90;;;;;;5125168;27;43790;-61
2022/04/11 06:48:54;;;;;;;0.93;0.93;;;17.40;43.80;;;;;;5124428;27;43462;-61
2022/04/11 06:51:21;;;;;;;1.08;1.08;;;17.40;43.80;;;;;;5126212;27;43489;-60
2022/04/11 06:53:50;;;;;;;1.63;1.40;;;17.40;44.00;;;;;;5141853;27;43603;-61
2022/04/11 06:56:18;;;;;;;2.03;1.85;;;17.40;44.00;;;;;;5143788;27;44073;-62
2022/04/11 06:58:45;;;;;;;1.92;1.83;;;17.30;44.10;;;;;;5124038;27;43571;-61
2022/04/11 07:01:12;;;;;;;1.80;1.70;;;17.40;44.10;;;;;;5118841;27;43522;-62
2022/04/11 07:03:40;;;;;;;2.13;1.77;;;17.50;44.10;;;;;;5143064;27;43579;-62
2022/04/11 07:06:09;;;;;;;2.38;1.60;;;17.60;44.10;;;;;;5143245;27;44737;-61
2022/04/11 07:08:36;;;;;;;2.00;1.60;;;17.70;43.90;;;;;;5142365;27;44792;-61
2022/04/11 07:11:07;;;;;;;2.13;1.83;;;17.80;43.80;;;;;;5141339;27;43715;-61
2022/04/11 07:13:34;;;;;;;1.90;1.73;;;17.90;43.70;;;;;;5140552;27;43486;-61
2022/04/11 07:16:02;;;;;;;1.55;1.45;;;17.90;43.50;;;;;;5138512;27;44034;-61
2022/04/11 07:18:31;;;;;;;2.83;1.80;;;18.10;43.60;;;;;;5140409;27;43439;-61
2022/04/11 07:20:59;;;;;;;1.77;1.35;;;18.20;43.50;;;;;;5139778;27;44149;-62
2022/04/11 07:23:27;;;;;;;2.33;1.60;;;18.30;43.40;;;;;;5141814;27;43777;-61
2022/04/11 07:25:54;;;;;;;1.50;1.40;;;18.40;43.30;;;;;;5104025;27;44481;-61
2022/04/11 07:28:22;;;;;;;4.43;1.40;;;18.60;43.10;;;;;;5136902;27;43556;-62
2022/04/11 07:30:50;;;;;;;1.60;1.50;;;18.70;43.20;;;;;;5137596;27;43532;-60
2022/04/11 07:33:17;;;;;;;1.23;1.10;;;18.70;42.90;;;;;;5140835;27;44089;-61
2022/04/11 07:35:45;;;;;;;1.52;1.42;;;18.80;42.90;;;;;;5143032;27;43749;-62
2022/04/11 07:38:13;;;;;;;2.17;1.30;;;18.90;42.80;;;;;;5139296;27;43420;-61
2022/04/11 07:40:47;;;;;;;2.05;1.73;;;18.90;42.80;;;;;;5125757;27;43506;-61
2022/04/11 07:43:15;;;;;;;1.73;1.63;;;19.00;42.70;;;;;;5139763;27;43619;-62
2022/04/11 07:45:43;;;;;;;1.85;1.75;;;19.00;42.70;;;;;;5136165;27;44789;-62
2022/04/11 07:48:11;;;;;;;2.65;1.92;;;19.10;42.60;;;;;;5139823;27;43421;-61
2022/04/11 07:50:38;;;;;;;3.22;1.73;;;19.20;44.80;;;;;;5137075;27;43481;-61
2022/04/11 07:53:06;;;;;;;2.72;1.60;;;19.40;42.90;;;;;;5126029;27;43501;-62
2022/04/11 07:55:33;;;;;;;1.70;1.60;;;19.40;42.60;;;;;;5142811;27;44979;-61
2022/04/11 07:58:01;;;;;;;1.70;1.50;;;19.60;42.50;;;;;;5141890;27;43769;-62
2022/04/11 08:00:29;;;;;;;1.95;1.27;;;19.60;42.40;;;;;;5140200;27;44040;-61
2022/04/11 08:02:57;;;;;;;1.40;1.30;;;19.70;42.40;;;;;;5135387;27;44004;-61
2022/04/11 08:05:25;;;;;;;1.88;1.38;;;19.80;42.40;;;;;;5118192;27;43935;-61
2022/04/11 08:07:53;;;;;;;1.40;1.30;;;19.80;42.30;;;;;;5139229;27;43481;-61
2022/04/11 08:10:23;;;;;;;1.63;1.10;;;19.90;42.20;;;;;;5138640;27;43523;-61
2022/04/11 08:12:58;;;;;;;1.17;1.08;;;20.00;42.30;;;;;;5127819;27;43509;-62
2022/04/11 08:15:29;;;;;;;1.33;1.10;;;20.10;42.20;;;;;;5143637;27;44375;-61
2022/04/11 08:17:58;;;;;;;1.30;1.20;;;20.20;42.20;;;;;;5139893;27;43545;-61
2022/04/11 08:20:26;;;;;;;1.33;1.23;;;20.30;42.20;;;;;;5142965;27;43533;-62
2022/04/11 08:22:54;;;;;;;1.50;1.05;;;20.40;42.10;;;;;;5123055;27;43442;-61
2022/04/11 08:25:22;;;;;;;1.88;1.10;;;20.50;41.90;;;;;;5143652;27;43960;-61
2022/04/11 08:27:51;;;;;;;1.40;1.30;;;20.60;42.00;;;;;;5126433;27;43997;-61
2022/04/11 08:30:19;;;;;;;1.25;1.10;;;20.70;41.80;;;;;;5141108;27;43476;-62
2022/04/11 08:32:49;;;;;;;1.35;1.25;;;20.90;41.70;;;;;;5144643;27;43674;-61
2022/04/11 08:35:20;;;;;;;1.10;1.10;;;21.00;41.70;;;;;;5139794;27;43817;-61
2022/04/11 08:37:48;;;;;;;2.03;1.10;;;21.00;41.50;;;;;;5141315;27;43521;-61
2022/04/11 08:40:20;;;;;;;1.38;1.13;;;21.10;41.40;;;;;;5142750;27;43488;-61
2022/04/11 08:42:49;;;;;;;1.67;1.20;;;21.20;41.40;;;;;;5143816;27;43540;-61
2022/04/11 08:45:23;;;;;;;1.58;1.00;;;21.30;41.40;;;;;;5145500;27;44974;-60
2022/04/11 08:47:53;;;;;;;3.08;1.17;;;21.30;41.40;;;;;;5132245;27;44843;-60
2022/04/11 08:50:22;;;;;;;2.97;1.30;;;21.30;41.50;;;;;;5132269;27;43673;-61
2022/04/11 08:52:51;;;;;;;1.33;0.80;;;21.30;41.70;;;;;;5144642;27;44129;-61
2022/04/11 08:55:19;;;;;;;0.90;0.90;;;21.40;41.60;;;;;;5144153;27;44700;-60
2022/04/11 08:57:47;;;;;;;3.85;1.40;;;21.50;41.60;;;;;;5134197;27;43666;-61
2022/04/11 09:00:21;;;;;;;5.43;1.40;;;21.50;41.60;;;;;;5133957;27;43508;-61
2022/04/11 09:02:49;;;;;;;2.63;1.05;;;21.70;41.50;;;;;;5137666;27;43609;-60
2022/04/11 09:05:22;;;;;;;1.92;0.98;;;21.70;42.20;;;;;;5141301;27;44700;-60
2022/04/11 09:07:56;;;;;;;1.55;1.08;;;21.80;41.50;;;;;;5139657;27;43646;-61
2022/04/11 09:10:26;;;;;;;2.80;1.27;;;21.90;41.50;;;;;;5126873;27;43441;-60
2022/04/11 09:12:58;;;;;;;1.67;0.82;;;22.00;41.40;;;;;;5146053;27;43504;-61
2022/04/11 09:15:27;;;;;;;3.40;0.95;;;22.00;41.20;;;;;;5133758;27;44982;-61
2022/04/11 09:17:57;;;;;;;2.80;0.90;;;22.10;41.10;;;;;;5133172;27;43553;-61
2022/04/11 09:20:26;;;;;;;1.65;0.95;;;22.20;41.10;;;;;;5139442;27;43422;-62
2022/04/11 09:22:54;;;;;;;1.88;1.13;;;22.20;40.90;;;;;;5127426;27;43691;-61
2022/04/11 09:25:27;;;;;;;0.93;0.70;;;22.30;41.00;;;;;;5138294;27;44976;-61
2022/04/11 09:28:09;;;;;;;2.30;1.00;;;22.30;40.80;;;;;;5141507;27;43536;-60
2022/04/11 09:30:39;;;;;;;1.10;1.00;;;22.30;40.50;;;;;;5127059;27;43559;-61
2022/04/11 09:33:11;;;;;;;2.25;1.02;;;22.30;40.80;;;;;;5138240;27;43537;-61
2022/04/11 09:35:49;;;;;;;1.00;1.00;;;22.30;40.50;;;;;;5138083;27;45044;-61
2022/04/11 09:38:21;;;;;;;1.95;1.00;;;22.20;40.70;;;;;;5137144;27;43497;-61
2022/04/11 09:40:48;;;;;;;0.60;0.60;;;22.20;40.80;;;;;;5141758;27;43484;-61
2022/04/11 09:43:30;;;;;;;1.85;0.90;;;22.20;40.90;;;;;;5125644;27;43573;-61
2022/04/11 09:45:59;;;;;;;1.33;0.90;;;22.20;40.80;;;;;;5061756;27;44043;-61
2022/04/11 09:48:30;;;;;;;1.40;1.10;;;22.10;41.00;;;;;;5064380;27;43677;-61
2022/04/11 09:51:00;;;;;;;2.95;1.17;;;22.10;41.00;;;;;;5056384;27;43394;-61
2022/04/11 09:53:34;;;;;;;3.85;1.02;;;22.00;41.00;;;;;;5061054;27;43549;-61
2022/04/11 09:56:08;;;;;;;1.63;0.80;;;22.00;41.10;;;;;;5063907;27;44963;-61
2022/04/11 09:58:40;;;;;;;1.67;0.90;;;21.90;41.10;;;;;;5049613;27;43574;-61
2022/04/11 10:01:09;;;;;;;1.50;0.80;;;21.90;41.30;;;;;;5046257;27;43451;-62
2022/04/11 10:03:38;;;;;;;2.97;0.60;;;21.90;41.40;;;;;;5095535;27;43573;-61
2022/04/11 10:06:07;;;;;;;2.13;0.85;;;21.90;41.40;;;;;;5052516;27;43809;-61
2022/04/11 10:08:35;;;;;;;1.08;0.98;;;21.90;41.50;;;;;;5043013;27;43507;-61
2022/04/11 10:11:04;;;;;;;1.70;0.80;;;22.00;41.50;;;;;;5117453;27;43534;-61
2022/04/11 10:13:34;;;;;;;1.88;1.05;;;22.00;41.70;;;;;;5055882;27;43565;-60
2022/04/11 10:16:04;;;;;;;1.63;0.80;;;22.10;41.60;;;;;;5067086;27;43631;-61
2022/04/11 10:18:33;;;;;;;0.60;0.60;;;22.20;41.60;;;;;;5107866;27;44739;-60
2022/04/11 10:21:05;;;;;;;1.17;0.70;;;22.20;41.50;;;;;;5120384;27;43444;-61
2022/04/11 10:24:06;;;;;;;0.90;0.70;;;22.30;41.50;;;;;;5045563;27;44027;-61
2022/04/11 10:26:45;;;;;;;2.33;0.77;;;22.40;41.40;;;;;;5046109;27;44775;-61
2022/04/11 10:29:32;;;;;;;1.20;0.73;;;22.40;42.00;;;;;;5039892;27;43481;-61
2022/04/11 10:32:13;;;;;;;0.52;0.50;;;22.40;41.30;;;;;;5081492;27;43511;-61
2022/04/11 10:34:54;;;;;;;0.57;0.57;;;22.50;41.30;;;;;;5048556;27;43584;-61
2022/04/11 10:37:27;;;;;;;0.80;0.80;;;22.50;41.30;;;;;;5044134;27;43891;-61
2022/04/11 10:40:17;;;;;;;0.80;0.70;;;22.50;41.20;;;;;;5108137;27;43588;-61
2022/04/11 10:43:08;;;;;;;0.97;0.73;;;22.50;41.20;;;;;;5043019;27;43506;-60
2022/04/11 10:45:41;;;;;;;0.73;0.70;;;22.50;41.40;;;;;;5052173;27;43532;-60
2022/04/11 10:48:13;;;;;;;0.77;0.70;;;22.40;41.30;;;;;;5050999;27;44062;-60
2022/04/11 10:50:42;;;;;;;0.70;0.55;;;22.40;41.40;;;;;;5038645;27;43398;-61
2022/04/11 10:53:11;;;;;;;1.50;0.63;;;22.50;41.40;;;;;;5050028;27;43485;-61
2022/04/11 10:56:05;;;;;;;1.15;0.50;;;22.40;41.40;;;;;;5056795;27;43514;-61
2022/04/11 10:58:40;;;;;;;0.68;0.57;;;22.50;41.40;;;;;;5043381;27;44375;-61
2022/04/11 11:01:09;;;;;;;0.95;0.50;;;22.50;42.00;;;;;;5045029;27;43962;-61
2022/04/11 11:03:41;;;;;;;1.30;0.57;;;22.50;41.40;;;;;;5054879;27;43459;-61
2022/04/11 11:06:22;;;;;;;0.77;0.50;;;22.50;41.40;;;;;;5055744;27;43557;-60
2022/04/11 11:08:50;;;;;;;0.70;0.70;;;22.50;41.50;;;;;;5052600;27;43870;-60
2022/04/11 11:11:26;;;;;;;1.38;0.57;;;22.50;41.40;;;;;;5045919;27;44074;-61
2022/04/11 11:13:56;;;;;;;0.50;0.43;;;22.50;41.50;;;;;;5044286;27;43539;-60
2022/04/11 11:16:25;;;;;;;5.68;1.00;;;22.50;41.60;;;;;;5108233;27;43607;-60
2022/04/11 11:19:13;;;;;;;6.32;1.50;;;22.40;41.70;;;;;;5048066;27;44778;-60
2022/04/11 11:21:44;;;;;;;4.80;0.98;;;22.40;41.50;;;;;;5063379;27;43442;-61
2022/04/11 11:24:12;;;;;;;7.47;1.00;;;22.40;41.40;;;;;;5048228;27;43520;-60
2022/04/11 11:26:45;;;;;;;7.38;1.00;;;22.30;41.50;;;;;;5045008;27;43405;-60
2022/04/11 11:29:29;;;;;;;1.55;0.68;;;22.30;41.50;;;;;;5043542;27;43797;-60
2022/04/11 11:32:06;;;;;;;3.63;0.90;;;22.30;41.60;;;;;;5072442;27;43516;-61
2022/04/11 11:34:38;;;;;;;2.53;0.70;;;22.30;41.50;;;;;;5092766;27;43540;-60
2022/04/11 11:37:08;;;;;;;3.22;0.73;;;22.30;41.50;;;;;;5047548;27;43529;-60
2022/04/11 11:39:37;;;;;;;3.13;0.80;;;22.30;41.60;;;;;;5043251;27;44037;-60
2022/04/11 11:42:07;;;;;;;2.00;0.68;;;22.30;41.60;;;;;;5092766;27;43547;-60
2022/04/11 11:44:43;;;;;;;1.75;0.82;;;22.30;41.60;;;;;;5069542;27;43598;-61
2022/04/11 11:47:11;;;;;;;1.98;0.90;;;22.30;41.70;;;;;;5052898;27;43541;-60
2022/04/11 11:49:41;;;;;;;1.50;0.73;;;22.30;41.60;;;;;;5045674;27;43997;-60
2022/04/11 11:52:16;;;;;;;1.45;0.70;;;22.30;41.50;;;;;;5051520;27;44046;-61
2022/04/11 11:54:55;;;;;;;1.92;0.73;;;22.30;41.60;;;;;;5111550;27;43512;-60
2022/04/11 11:57:28;;;;;;;1.27;0.60;;;22.30;41.60;;;;;;5050261;27;43580;-60
2022/04/11 12:00:03;;;;;;;1.50;0.60;;;22.20;41.60;;;;;;5110230;27;44960;-60
2022/04/11 12:05:28;;;;;;;1.17;0.70;;;22.30;41.70;;;;;;5048081;27;43552;-60
2022/04/11 12:08:04;;;;;;;1.05;0.80;;;22.30;41.70;;;;;;5102786;27;43495;-60
2022/04/11 12:10:32;;;;;;;0.93;0.52;;;22.30;41.80;;;;;;5051663;27;45006;-60
2022/04/11 12:12:59;;;;;;;2.25;0.60;;;22.30;41.80;;;;;;5110267;27;43481;-60
2022/04/11 12:15:31;;;;;;;3.72;0.88;;;22.30;41.80;;;;;;5043480;27;43454;-60
2022/04/11 12:18:09;;;;;;;2.53;0.95;;;22.20;41.80;;;;;;5110943;27;43613;-60
2022/04/11 12:20:37;;;;;;;1.85;0.70;;;22.30;41.80;;;;;;5044269;27;43986;-61
2022/04/11 12:23:11;;;;;;;2.13;0.70;;;22.20;41.70;;;;;;5042626;27;43573;-60
2022/04/11 12:25:49;;;;;;;1.17;0.63;;;22.20;41.80;;;;;;5042836;27;43549;-60
2022/04/11 12:28:19;;;;;;;1.52;0.60;;;22.20;41.80;;;;;;5043671;27;43433;-61
2022/04/11 12:30:47;;;;;;;2.92;0.68;;;22.20;41.80;;;;;;5044511;27;44943;-60
2022/04/11 12:33:42;;;;;;;0.82;0.50;;;22.20;41.80;;;;;;5060543;27;44196;-60
2022/04/11 12:36:22;;;;;;;0.80;0.47;;;22.20;41.80;;;;;;5041480;27;43462;-60
2022/04/11 12:38:52;;;;;;;0.77;0.50;;;22.30;41.90;;;;;;5045735;27;43565;-60
2022/04/11 12:41:26;;;;;;;0.82;0.50;;;22.20;41.90;;;;;;5059770;27;44759;-60
2022/04/11 12:44:20;;;;;;;0.45;0.40;;;22.20;41.90;;;;;;5089305;27;44000;-61
2022/04/11 12:47:05;;;;;;;0.90;0.50;;;22.20;41.90;;;;;;5106783;27;43464;-60
2022/04/11 12:49:55;;;;;;;0.63;0.60;;;22.20;41.90;;;;;;5137889;27;43548;-60
2022/04/11 12:52:28;;;;;;;0.50;0.50;;;22.20;41.90;;;;;;5141748;27;44173;-60
2022/04/11 12:55:04;;;;;;;0.60;0.60;;;22.30;42.20;;;;;;5142977;27;44128;-61
2022/04/11 12:57:40;;;;;;;1.75;0.80;;;22.30;41.90;;;;;;5137201;27;43519;-61
2022/04/11 13:00:19;;;;;;;0.75;0.70;;;22.20;41.60;;;;;;5133426;27;43635;-61
2022/04/11 13:02:47;;;;;;;1.30;0.60;;;22.20;41.80;;;;;;5125094;27;43669;-60
2022/04/11 13:05:15;;;;;;;1.30;0.63;;;22.20;41.90;;;;;;5141494;27;43419;-60
2022/04/11 13:08:03;;;;;;;1.85;0.63;;;22.20;41.90;;;;;;5133796;27;43427;-60